Time;durP1;ratioP1;P1;durP2;ratioP2;P2;SDS_P1;SDS_P2;PMS_P1;PMS_P2;Temp;Humidity;BMP_temperature;BMP_pressure;BME280_temperature;BME280_humidity;BME280_pressure;Samples;Min_cycle;Max_cycle;Signal;HPM_P1;HPM_P2
2023/10/19 00:02:51;;;;;;;8.27;5.68;;;8.70;99.90;;;;;;4970877;28;20318;-65
2023/10/19 00:05:19;;;;;;;8.50;5.85;;;8.50;99.90;;;;;;4995927;28;20352;-64
2023/10/19 00:07:47;;;;;;;7.93;5.43;;;8.70;99.90;;;;;;4992865;28;20256;-65
2023/10/19 00:10:16;;;;;;;6.43;5.20;;;8.70;99.90;;;;;;5000758;28;20214;-64
2023/10/19 00:12:43;;;;;;;8.27;5.43;;;8.70;99.90;;;;;;4994242;28;20280;-65
2023/10/19 00:15:12;;;;;;;7.50;5.25;;;8.70;99.90;;;;;;4986968;28;20270;-65
2023/10/19 00:17:38;;;;;;;9.43;6.20;;;8.70;99.90;;;;;;4964948;28;20371;-65
2023/10/19 00:20:29;;;;;;;7.70;5.72;;;8.70;99.90;;;;;;4989595;28;20203;-65
2023/10/19 00:22:58;;;;;;;8.40;5.95;;;8.60;99.90;;;;;;4999004;28;20221;-65
2023/10/19 00:25:25;;;;;;;7.38;5.60;;;8.60;99.90;;;;;;4998063;28;20203;-65
2023/10/19 00:27:52;;;;;;;9.52;6.10;;;8.60;99.90;;;;;;4999711;28;20206;-65
2023/10/19 00:30:23;;;;;;;7.53;5.80;;;;;;;;;;4980377;28;20202;-65
2023/10/19 00:32:50;;;;;;;10.30;5.65;;;8.60;99.90;;;;;;4986896;28;20249;-65
2023/10/19 00:35:27;;;;;;;9.80;6.20;;;8.50;99.90;;;;;;4990441;28;20213;-65
2023/10/19 00:38:17;;;;;;;8.07;6.07;;;8.50;99.90;;;;;;4998841;28;20202;-65
2023/10/19 00:40:47;;;;;;;11.48;6.68;;;8.40;99.90;;;;;;5000255;28;20194;-65
2023/10/19 00:43:17;;;;;;;12.45;6.53;;;8.40;99.90;;;;;;5001109;28;20218;-64
2023/10/19 00:45:46;;;;;;;7.38;6.07;;;8.40;99.90;;;;;;4989382;28;20206;-65
2023/10/19 00:48:13;;;;;;;8.32;6.15;;;8.40;99.90;;;;;;4963833;28;20866;-65
2023/10/19 00:50:40;;;;;;;9.93;6.25;;;8.30;99.90;;;;;;4986816;28;21002;-65
2023/10/19 00:53:12;;;;;;;10.83;6.83;;;8.30;99.90;;;;;;4991073;28;20226;-65
2023/10/19 00:55:41;;;;;;;10.77;6.35;;;8.20;99.90;;;;;;4997404;28;20312;-66
2023/10/19 00:58:11;;;;;;;10.93;6.22;;;8.20;99.90;;;;;;4995600;28;20202;-65
2023/10/19 01:00:43;;;;;;;9.88;6.72;;;8.20;99.90;;;;;;5000874;28;20599;-65
2023/10/19 01:03:16;;;;;;;9.75;6.78;;;8.20;99.90;;;;;;4958430;28;20357;-65
2023/10/19 01:05:48;;;;;;;9.68;6.55;;;8.20;99.90;;;;;;4997528;28;20235;-65
2023/10/19 01:08:23;;;;;;;9.40;6.75;;;8.20;99.90;;;;;;4994295;28;20202;-65
2023/10/19 01:10:52;;;;;;;9.43;6.45;;;8.10;99.90;;;;;;4997292;28;20242;-65
2023/10/19 01:13:26;;;;;;;11.85;7.53;;;8.10;99.90;;;;;;4993125;28;20786;-65
2023/10/19 01:15:54;;;;;;;9.68;6.85;;;8.00;99.90;;;;;;4996673;28;20210;-65
2023/10/19 01:18:22;;;;;;;16.02;7.22;;;;;;;;;;4976747;28;20206;-66
2023/10/19 01:20:51;;;;;;;11.77;6.70;;;8.00;99.90;;;;;;4983469;28;20742;-65
2023/10/19 01:23:25;;;;;;;13.10;8.40;;;8.00;99.90;;;;;;4995198;28;20354;-65
2023/10/19 01:25:59;;;;;;;11.27;7.80;;;7.90;99.90;;;;;;4998414;28;20304;-66
2023/10/19 01:28:28;;;;;;;10.48;7.68;;;7.90;99.90;;;;;;4991085;28;20269;-66
2023/10/19 01:30:55;;;;;;;12.33;7.70;;;7.90;99.90;;;;;;5002198;28;21059;-66
2023/10/19 01:33:23;;;;;;;13.07;7.90;;;7.90;99.90;;;;;;4993188;28;20270;-66
2023/10/19 01:38:35;;;;;;;10.93;7.17;;;7.80;99.90;;;;;;4996655;28;20294;-66
2023/10/19 01:41:06;;;;;;;16.97;8.40;;;7.80;99.90;;;;;;5002589;28;20204;-66
2023/10/19 01:43:32;;;;;;;14.18;8.35;;;;;;;;;;5006042;28;20209;-66
2023/10/19 01:46:04;;;;;;;15.47;8.30;;;7.90;99.90;;;;;;4983522;28;20241;-66
2023/10/19 01:48:33;;;;;;;13.00;8.77;;;7.80;99.90;;;;;;4996996;28;20212;-66
2023/10/19 01:51:03;;;;;;;12.70;8.60;;;7.70;99.90;;;;;;4963711;28;20222;-66
2023/10/19 01:53:29;;;;;;;11.67;8.60;;;7.70;99.90;;;;;;4994472;28;20226;-66
2023/10/19 01:55:58;;;;;;;15.63;8.67;;;8.30;99.90;;;;;;4999999;28;20285;-66
2023/10/19 01:58:25;;;;;;;11.30;8.70;;;7.70;99.90;;;;;;5002400;28;20846;-66
2023/10/19 02:00:54;;;;;;;12.40;8.23;;;7.70;99.90;;;;;;4998094;28;20232;-66
2023/10/19 02:03:21;;;;;;;12.90;8.60;;;7.70;99.90;;;;;;4990026;28;20213;-66
2023/10/19 02:05:50;;;;;;;13.10;8.40;;;;;;;;;;4955329;28;21554;-66
2023/10/19 02:08:17;;;;;;;13.10;8.37;;;7.70;99.90;;;;;;4996697;28;20248;-66
2023/10/19 02:10:48;;;;;;;15.20;8.70;;;7.60;99.90;;;;;;4994196;28;20232;-66
2023/10/19 02:13:18;;;;;;;14.50;8.37;;;7.60;99.90;;;;;;4999858;28;20241;-66
2023/10/19 02:15:44;;;;;;;14.73;9.67;;;7.60;99.90;;;;;;4994891;28;20218;-66
2023/10/19 02:18:11;;;;;;;13.80;8.50;;;7.60;99.90;;;;;;4991181;28;20496;-66
2023/10/19 02:20:40;;;;;;;14.20;8.80;;;7.60;99.90;;;;;;4984876;28;20203;-66
2023/10/19 02:23:07;;;;;;;14.57;9.37;;;7.60;99.90;;;;;;4982018;28;21099;-66
2023/10/19 02:25:36;;;;;;;14.87;9.80;;;7.50;99.90;;;;;;4990719;28;20219;-66
2023/10/19 02:28:06;;;;;;;17.00;9.40;;;7.50;99.90;;;;;;4998852;28;20198;-66
2023/10/19 02:30:33;;;;;;;14.77;8.47;;;7.50;99.90;;;;;;5002824;28;20651;-66
2023/10/19 02:33:03;;;;;;;15.77;9.53;;;;;;;;;;4998223;28;20301;-66
2023/10/19 02:35:30;;;;;;;13.33;9.53;;;7.50;99.90;;;;;;4980652;28;20217;-66
2023/10/19 02:37:58;;;;;;;12.57;8.93;;;7.50;99.90;;;;;;4967643;28;20225;-66
2023/10/19 02:40:25;;;;;;;14.47;9.93;;;7.50;99.90;;;;;;4984031;28;20976;-66
2023/10/19 02:42:53;;;;;;;13.20;9.27;;;7.50;99.90;;;;;;4998962;28;20260;-66
2023/10/19 02:45:19;;;;;;;18.97;10.00;;;7.50;99.90;;;;;;4999216;28;20206;-66
2023/10/19 02:47:48;;;;;;;14.53;9.60;;;7.50;99.90;;;;;;4997224;28;20207;-67
2023/10/19 02:50:16;;;;;;;14.10;9.60;;;7.50;99.90;;;;;;4977661;28;21056;-67
2023/10/19 02:52:43;;;;;;;15.53;9.37;;;7.50;99.90;;;;;;4966534;28;20320;-66
2023/10/19 02:55:10;;;;;;;15.37;9.63;;;7.40;99.90;;;;;;4986703;28;20222;-67
2023/10/19 02:57:37;;;;;;;13.73;9.93;;;7.40;99.90;;;;;;4994044;28;20255;-66
2023/10/19 03:00:11;;;;;;;16.77;10.37;;;7.50;99.90;;;;;;4999249;28;21188;-66
2023/10/19 03:02:39;;;;;;;16.97;9.97;;;7.50;99.90;;;;;;4999668;28;20698;-67
2023/10/19 03:05:14;;;;;;;13.63;9.03;;;7.50;99.90;;;;;;4990187;28;20623;-67
2023/10/19 03:07:43;;;;;;;15.80;10.23;;;7.40;99.90;;;;;;4964476;28;20202;-66
2023/10/19 03:10:22;;;;;;;16.73;9.63;;;7.40;99.90;;;;;;4988641;28;20223;-67
2023/10/19 03:12:50;;;;;;;12.80;9.47;;;7.50;99.90;;;;;;4996692;28;21067;-66
2023/10/19 03:15:17;;;;;;;14.67;9.27;;;7.50;99.90;;;;;;5002472;28;20195;-66
2023/10/19 03:17:44;;;;;;;14.00;9.20;;;7.50;99.90;;;;;;4994795;28;20704;-66
2023/10/19 03:20:11;;;;;;;16.60;10.30;;;7.50;99.90;;;;;;4994850;28;20312;-66
2023/10/19 03:22:39;;;;;;;15.70;10.30;;;7.50;99.90;;;;;;4996321;28;20202;-67
2023/10/19 03:25:48;;;;;;;17.47;10.07;;;7.50;99.90;;;;;;4966801;28;20234;-66
2023/10/19 03:28:08;;;;;;;16.20;9.70;;;7.50;99.90;;;;;;4988028;28;20225;-67
2023/10/19 03:30:39;;;;;;;15.37;10.17;;;7.50;99.90;;;;;;4992906;28;20303;-67
2023/10/19 03:33:08;;;;;;;13.97;9.53;;;7.50;99.90;;;;;;4985939;28;20225;-67
2023/10/19 03:35:37;;;;;;;16.23;9.73;;;7.70;99.90;;;;;;4984210;28;20218;-67
2023/10/19 03:38:08;;;;;;;17.07;9.87;;;7.20;99.90;;;;;;4986187;28;21204;-67
2023/10/19 03:40:38;;;;;;;17.80;10.70;;;7.50;99.90;;;;;;4955063;28;20695;-67
2023/10/19 03:43:16;;;;;;;18.27;11.03;;;7.50;99.90;;;;;;4989983;28;20232;-67
2023/10/19 03:45:49;;;;;;;17.87;10.50;;;7.40;99.90;;;;;;4992409;28;21192;-66
2023/10/19 03:48:18;;;;;;;16.40;11.33;;;7.40;99.90;;;;;;4995077;28;20247;-66
2023/10/19 03:50:48;;;;;;;16.57;10.67;;;7.40;99.90;;;;;;4991924;28;20695;-67
2023/10/19 03:53:15;;;;;;;15.80;10.77;;;7.40;99.90;;;;;;4977401;28;20638;-67
2023/10/19 03:55:43;;;;;;;18.23;11.10;;;7.50;99.90;;;;;;4950731;28;20828;-66
2023/10/19 03:58:11;;;;;;;16.07;9.93;;;7.50;99.90;;;;;;4969516;28;20237;-67
2023/10/19 04:00:39;;;;;;;14.57;10.50;;;7.40;99.90;;;;;;4986245;28;20217;-67
2023/10/19 04:03:07;;;;;;;16.97;10.70;;;7.40;99.90;;;;;;4977977;28;20238;-67
2023/10/19 04:05:38;;;;;;;16.90;10.83;;;7.40;99.90;;;;;;4990741;28;20198;-67
2023/10/19 04:08:12;;;;;;;14.43;10.53;;;7.40;99.90;;;;;;4980306;28;20216;-67
2023/10/19 04:10:44;;;;;;;20.83;11.67;;;7.40;99.90;;;;;;4966528;28;20233;-67
2023/10/19 04:13:12;;;;;;;16.50;11.30;;;7.40;99.90;;;;;;4988656;28;20343;-66
2023/10/19 04:15:39;;;;;;;13.67;10.00;;;7.40;99.90;;;;;;4989520;28;20241;-67
2023/10/19 04:18:09;;;;;;;16.20;11.03;;;7.40;99.90;;;;;;4985940;28;20230;-67
2023/10/19 04:20:42;;;;;;;15.13;10.20;;;7.40;99.90;;;;;;4999316;28;20201;-67
2023/10/19 04:23:14;;;;;;;17.27;11.40;;;7.40;99.90;;;;;;4994078;28;20234;-67
2023/10/19 04:25:40;;;;;;;20.53;11.27;;;7.40;99.90;;;;;;4984925;28;20199;-67
2023/10/19 04:28:09;;;;;;;18.07;12.03;;;7.40;99.90;;;;;;4955919;28;20738;-67
2023/10/19 04:30:37;;;;;;;17.07;11.67;;;7.40;99.90;;;;;;4983579;28;20733;-67
2023/10/19 04:33:08;;;;;;;20.97;11.90;;;7.40;99.90;;;;;;4998277;28;20237;-67
2023/10/19 04:35:36;;;;;;;19.27;11.53;;;7.40;99.90;;;;;;4988831;28;20229;-67
2023/10/19 04:38:07;;;;;;;20.27;11.80;;;7.40;99.90;;;;;;4985823;28;20246;-67
2023/10/19 04:40:36;;;;;;;18.43;11.10;;;7.40;99.90;;;;;;4986704;28;20836;-66
2023/10/19 04:43:05;;;;;;;19.27;11.87;;;7.40;99.90;;;;;;4950426;28;21633;-67
2023/10/19 04:45:32;;;;;;;19.87;11.90;;;;;;;;;;4966491;28;20221;-67
2023/10/19 04:47:58;;;;;;;17.20;11.47;;;7.40;99.90;;;;;;4988853;28;21039;-66
2023/10/19 04:50:25;;;;;;;14.47;10.00;;;7.40;99.90;;;;;;4991359;28;20201;-66
2023/10/19 04:52:52;;;;;;;16.90;12.00;;;7.50;99.90;;;;;;4979376;28;20224;-67
2023/10/19 04:55:19;;;;;;;19.10;12.27;;;7.50;99.90;;;;;;4988669;28;20835;-66
2023/10/19 04:57:47;;;;;;;20.30;11.43;;;7.40;99.90;;;;;;4942121;28;20228;-67
2023/10/19 05:00:15;;;;;;;21.37;11.33;;;7.50;99.90;;;;;;4981107;28;20232;-67
2023/10/19 05:02:42;;;;;;;17.27;11.17;;;7.40;99.90;;;;;;4979005;28;20226;-66
2023/10/19 05:05:09;;;;;;;17.73;11.13;;;7.40;99.90;;;;;;4974994;28;20229;-66
2023/10/19 05:07:38;;;;;;;19.73;12.63;;;7.40;99.90;;;;;;4984594;28;20774;-66
2023/10/19 05:10:06;;;;;;;19.90;12.03;;;7.70;99.90;;;;;;4989776;28;20208;-66
2023/10/19 05:12:33;;;;;;;15.23;11.57;;;7.40;99.90;;;;;;4980875;28;20349;-67
2023/10/19 05:15:02;;;;;;;25.20;12.93;;;7.50;99.90;;;;;;4954611;28;20205;-66
2023/10/19 05:17:28;;;;;;;18.60;11.40;;;7.20;99.90;;;;;;4999627;28;20194;-66
2023/10/19 05:19:55;;;;;;;19.17;12.93;;;7.50;99.90;;;;;;4980642;28;20766;-67
2023/10/19 05:22:24;;;;;;;17.30;11.63;;;7.50;99.90;;;;;;4985105;28;20211;-66
2023/10/19 05:24:51;;;;;;;16.97;11.30;;;7.50;99.90;;;;;;4985285;28;20234;-66
2023/10/19 05:27:19;;;;;;;16.70;11.13;;;7.40;99.90;;;;;;4995267;28;20287;-66
2023/10/19 05:29:46;;;;;;;20.07;11.20;;;7.50;99.90;;;;;;4953326;28;20226;-67
2023/10/19 05:32:14;;;;;;;17.37;11.73;;;7.50;99.90;;;;;;4992759;28;20323;-67
2023/10/19 05:34:41;;;;;;;17.33;11.53;;;7.50;99.90;;;;;;4980991;28;20210;-66
2023/10/19 05:37:08;;;;;;;20.57;12.20;;;7.50;99.90;;;;;;4980555;28;20337;-66
2023/10/19 05:39:36;;;;;;;14.40;10.57;;;7.40;99.90;;;;;;4971204;28;20264;-67
2023/10/19 05:42:04;;;;;;;18.13;11.83;;;7.50;99.90;;;;;;4993125;28;20396;-66
2023/10/19 05:44:31;;;;;;;18.10;12.43;;;8.20;99.90;;;;;;4966206;28;20249;-67
2023/10/19 05:46:58;;;;;;;16.40;10.70;;;7.50;99.90;;;;;;4951290;28;20237;-65
2023/10/19 05:49:26;;;;;;;16.40;11.43;;;7.50;99.90;;;;;;4983867;28;20195;-66
2023/10/19 05:51:53;;;;;;;17.40;11.30;;;7.50;99.90;;;;;;4987420;28;20903;-66
2023/10/19 05:54:23;;;;;;;18.50;11.33;;;8.30;99.90;;;;;;4976556;28;20226;-66
2023/10/19 05:56:50;;;;;;;17.93;10.83;;;7.60;99.90;;;;;;4989714;28;20206;-66
2023/10/19 05:59:17;;;;;;;17.63;11.67;;;7.50;99.90;;;;;;4991154;28;20213;-66
2023/10/19 06:01:46;;;;;;;15.80;10.57;;;7.40;99.90;;;;;;4956426;28;20219;-66
2023/10/19 06:04:13;;;;;;;16.10;10.83;;;7.70;99.90;;;;;;4985585;28;21034;-67
2023/10/19 06:06:41;;;;;;;16.30;11.00;;;6.90;99.90;;;;;;4982420;28;20703;-66
2023/10/19 06:09:09;;;;;;;27.30;10.90;;;8.00;99.90;;;;;;4977202;28;20209;-66
2023/10/19 06:11:37;;;;;;;26.40;17.27;;;8.10;99.90;;;;;;4986355;28;20566;-66
2023/10/19 06:14:06;;;;;;;15.87;10.87;;;7.80;99.90;;;;;;5000320;28;20233;-67
2023/10/19 06:16:34;;;;;;;18.33;10.07;;;7.80;99.90;;;;;;4960653;28;20809;-67
2023/10/19 06:19:01;;;;;;;14.33;9.20;;;7.70;99.90;;;;;;4983241;28;20752;-66
2023/10/19 06:21:27;;;;;;;14.00;9.07;;;7.70;99.90;;;;;;4991439;28;20213;-66
2023/10/19 06:23:55;;;;;;;14.27;9.83;;;7.80;99.90;;;;;;4975950;28;20206;-66
2023/10/19 06:26:22;;;;;;;15.17;8.67;;;7.90;99.90;;;;;;4985537;28;20241;-66
2023/10/19 06:28:50;;;;;;;14.13;9.10;;;8.20;99.90;;;;;;5003019;28;20201;-66
2023/10/19 06:31:19;;;;;;;12.20;9.00;;;7.80;99.90;;;;;;4960551;28;20214;-66
2023/10/19 06:33:45;;;;;;;11.70;8.13;;;7.70;99.90;;;;;;4993867;28;20256;-66
2023/10/19 06:36:12;;;;;;;13.63;8.87;;;7.70;99.90;;;;;;4995791;28;20202;-66
2023/10/19 06:38:39;;;;;;;12.93;8.33;;;7.60;99.90;;;;;;4974035;28;20509;-66
2023/10/19 06:41:18;;;;;;;9.87;7.20;;;7.60;99.90;;;;;;4991451;28;21013;-66
2023/10/19 06:43:45;;;;;;;12.00;8.30;;;7.70;99.90;;;;;;4996916;28;20212;-66
2023/10/19 06:46:12;;;;;;;11.57;8.30;;;7.70;99.90;;;;;;4996529;28;20206;-66
2023/10/19 06:48:39;;;;;;;10.47;7.63;;;7.30;99.90;;;;;;4963323;28;20494;-67
2023/10/19 06:51:06;;;;;;;10.47;7.13;;;7.70;99.90;;;;;;5000202;28;20198;-66
2023/10/19 06:53:33;;;;;;;9.67;6.97;;;7.70;99.90;;;;;;4988850;28;20657;-66
2023/10/19 06:56:00;;;;;;;9.70;7.00;;;7.70;99.90;;;;;;4985606;28;20304;-66
2023/10/19 06:58:28;;;;;;;10.20;7.03;;;7.70;99.90;;;;;;4988719;28;20327;-66
2023/10/19 07:00:59;;;;;;;27.17;17.83;;;7.90;99.90;;;;;;5001832;28;20198;-67
2023/10/19 07:03:28;;;;;;;78.17;51.33;;;7.90;99.90;;;;;;4939502;28;28517;-66
2023/10/19 07:05:55;;;;;;;11.73;7.63;;;7.90;99.90;;;;;;4994264;28;20222;-66
2023/10/19 07:08:22;;;;;;;8.40;6.40;;;8.40;99.90;;;;;;4968596;28;20213;-66
2023/10/19 07:10:50;;;;;;;10.03;6.83;;;7.80;99.90;;;;;;4989419;28;20233;-66
2023/10/19 07:13:17;;;;;;;8.87;6.50;;;;;;;;;;4981902;28;20233;-66
2023/10/19 07:15:48;;;;;;;8.47;7.07;;;7.80;99.90;;;;;;4993874;28;20221;-67
2023/10/19 07:18:16;;;;;;;7.83;6.23;;;7.80;99.90;;;;;;4994209;28;20206;-66
2023/10/19 07:20:43;;;;;;;11.50;6.57;;;7.70;99.90;;;;;;4951068;28;20712;-66
2023/10/19 07:23:19;;;;;;;10.40;6.87;;;7.80;99.90;;;;;;4977165;28;20810;-67
2023/10/19 07:25:52;;;;;;;12.60;7.57;;;8.00;99.90;;;;;;4967242;28;20870;-67
2023/10/19 07:28:20;;;;;;;11.60;6.07;;;8.00;99.90;;;;;;4984490;28;20760;-66
2023/10/19 07:30:51;;;;;;;11.70;6.37;;;7.10;99.90;;;;;;4981850;28;20680;-66
2023/10/19 07:33:18;;;;;;;45.73;32.20;;;8.00;99.90;;;;;;4989836;28;20705;-66
2023/10/19 07:35:46;;;;;;;29.80;19.57;;;7.90;99.90;;;;;;4958603;28;20692;-66
2023/10/19 07:38:14;;;;;;;9.67;6.07;;;7.90;99.90;;;;;;4984486;28;20986;-67
2023/10/19 07:40:41;;;;;;;12.40;5.90;;;7.90;99.90;;;;;;4985889;28;20207;-66
2023/10/19 07:43:08;;;;;;;7.93;5.80;;;8.10;99.90;;;;;;4972378;28;21600;-66
2023/10/19 07:45:36;;;;;;;9.47;5.80;;;8.20;99.90;;;;;;4993635;28;20199;-66
2023/10/19 07:48:07;;;;;;;8.87;6.70;;;7.70;99.90;;;;;;4978888;28;20293;-66
2023/10/19 07:50:34;;;;;;;8.13;5.40;;;8.00;99.90;;;;;;4961396;28;21201;-66
2023/10/19 07:53:01;;;;;;;7.53;5.80;;;7.90;99.90;;;;;;4978454;28;20731;-66
2023/10/19 07:55:28;;;;;;;8.10;5.53;;;7.90;99.90;;;;;;4975335;28;20207;-67
2023/10/19 07:57:57;;;;;;;7.43;5.47;;;7.90;99.90;;;;;;4971777;28;20212;-68
2023/10/19 08:00:24;;;;;;;7.90;5.03;;;7.90;99.90;;;;;;4984183;28;20688;-67
2023/10/19 08:02:51;;;;;;;8.93;5.17;;;7.80;99.90;;;;;;4994696;28;20199;-67
2023/10/19 08:05:19;;;;;;;37.03;21.03;;;8.00;99.90;;;;;;4950311;28;20636;-66
2023/10/19 08:07:46;;;;;;;8.53;6.07;;;8.00;99.90;;;;;;4983649;28;20214;-66
2023/10/19 08:10:15;;;;;;;5.67;4.33;;;7.90;99.90;;;;;;4952530;28;20233;-66
2023/10/19 08:12:44;;;;;;;6.80;5.37;;;7.90;99.90;;;;;;4973723;28;20223;-67
2023/10/19 08:15:13;;;;;;;5.80;4.47;;;8.00;99.90;;;;;;4977292;28;20467;-66
2023/10/19 08:17:41;;;;;;;14.03;5.83;;;7.90;99.90;;;;;;4992156;28;20226;-66
2023/10/19 08:20:15;;;;;;;6.80;4.60;;;8.00;99.90;;;;;;4952063;28;20415;-67
2023/10/19 08:22:46;;;;;;;5.53;4.13;;;8.00;99.90;;;;;;4994553;28;20599;-66
2023/10/19 08:25:14;;;;;;;5.23;4.07;;;8.00;99.90;;;;;;4970040;28;20252;-67
2023/10/19 08:27:44;;;;;;;12.10;5.00;;;8.10;99.90;;;;;;4969050;28;21280;-67
2023/10/19 08:30:12;;;;;;;6.60;4.80;;;8.20;99.90;;;;;;4985726;28;20222;-67
2023/10/19 08:32:39;;;;;;;5.73;4.67;;;8.20;99.90;;;;;;4990683;28;20230;-67
2023/10/19 08:35:07;;;;;;;6.60;4.73;;;8.20;99.90;;;;;;4941964;28;20557;-67
2023/10/19 08:37:34;;;;;;;15.83;5.10;;;8.20;99.90;;;;;;4999144;28;20225;-67
2023/10/19 08:40:04;;;;;;;6.60;4.93;;;8.10;99.90;;;;;;4981197;28;20214;-67
2023/10/19 08:42:31;;;;;;;6.17;4.33;;;8.00;99.90;;;;;;4976016;28;20213;-66
2023/10/19 08:44:59;;;;;;;21.47;15.40;;;7.90;99.90;;;;;;4979860;28;20649;-66
2023/10/19 08:47:26;;;;;;;239.97;158.03;;;8.10;99.90;;;;;;4984329;28;20225;-66
2023/10/19 08:49:54;;;;;;;11.37;8.27;;;8.20;99.90;;;;;;4970720;28;20218;-67
2023/10/19 08:52:23;;;;;;;6.00;4.83;;;8.50;99.90;;;;;;4982836;28;20471;-66
2023/10/19 08:54:50;;;;;;;5.10;4.13;;;8.30;99.90;;;;;;4980210;28;20242;-66
2023/10/19 08:57:19;;;;;;;5.37;4.07;;;8.20;99.90;;;;;;4975257;28;20221;-67
2023/10/19 08:59:48;;;;;;;5.13;4.20;;;8.20;99.90;;;;;;4987462;28;20622;-66
2023/10/19 09:02:16;;;;;;;4.67;3.43;;;8.20;99.90;;;;;;4953234;28;20590;-67
2023/10/19 09:04:44;;;;;;;6.33;4.17;;;8.20;99.90;;;;;;4990397;28;20554;-67
2023/10/19 09:07:11;;;;;;;23.60;16.67;;;8.20;99.90;;;;;;4936202;28;20599;-66
2023/10/19 09:09:40;;;;;;;40.97;20.90;;;8.20;99.90;;;;;;4993761;28;20222;-67
2023/10/19 09:12:09;;;;;;;5.50;4.30;;;8.10;99.90;;;;;;4977909;28;20916;-67
2023/10/19 09:14:41;;;;;;;4.83;3.53;;;8.20;99.90;;;;;;4977189;28;20243;-66
2023/10/19 09:17:09;;;;;;;3.90;3.33;;;8.10;99.90;;;;;;4974937;28;20499;-67
2023/10/19 09:19:40;;;;;;;4.53;3.70;;;8.10;99.90;;;;;;4995637;28;20202;-67
2023/10/19 09:22:16;;;;;;;4.27;3.73;;;8.30;99.90;;;;;;4927782;28;20712;-67
2023/10/19 09:24:44;;;;;;;4.53;3.27;;;8.20;99.90;;;;;;4991437;28;20198;-67
2023/10/19 09:27:12;;;;;;;21.07;5.40;;;8.40;99.90;;;;;;4976508;28;20230;-67
2023/10/19 09:29:40;;;;;;;8.67;5.60;;;8.40;99.90;;;;;;4979438;28;20729;-67
2023/10/19 09:32:08;;;;;;;12.83;8.23;;;8.50;99.90;;;;;;4999089;28;20320;-67
2023/10/19 09:34:36;;;;;;;5.00;3.53;;;8.20;99.90;;;;;;4984964;28;20237;-67
2023/10/19 09:37:04;;;;;;;3.60;3.30;;;8.40;99.90;;;;;;4938690;28;20211;-68
2023/10/19 09:39:35;;;;;;;3.67;3.13;;;8.40;99.90;;;;;;4979141;28;20217;-66
2023/10/19 09:42:05;;;;;;;4.20;3.43;;;8.20;99.90;;;;;;4984009;28;22475;-67
2023/10/19 09:44:39;;;;;;;4.00;3.17;;;8.20;99.90;;;;;;4966254;28;20509;-66
2023/10/19 09:47:12;;;;;;;3.40;2.75;;;8.30;99.90;;;;;;4983364;28;20722;-66
2023/10/19 09:49:40;;;;;;;3.83;3.07;;;8.20;99.90;;;;;;4981838;28;20240;-66
2023/10/19 09:52:08;;;;;;;3.73;2.80;;;8.20;99.90;;;;;;4958601;28;20221;-66
2023/10/19 09:54:47;;;;;;;2.93;2.63;;;8.10;99.90;;;;;;4979529;28;20436;-67
2023/10/19 09:57:19;;;;;;;3.47;3.00;;;8.10;99.90;;;;;;4990929;28;20206;-67
2023/10/19 09:59:50;;;;;;;7.77;3.47;;;8.10;99.90;;;;;;4971238;28;20221;-66
2023/10/19 10:02:22;;;;;;;3.20;2.63;;;8.20;99.90;;;;;;4985246;28;20283;-67
2023/10/19 10:04:49;;;;;;;3.00;2.70;;;8.00;99.90;;;;;;4974372;28;20207;-67
2023/10/19 10:07:16;;;;;;;3.47;2.80;;;8.10;99.90;;;;;;4952151;28;20610;-67
2023/10/19 10:09:44;;;;;;;4.20;2.73;;;8.10;99.90;;;;;;4984187;28;20202;-67
2023/10/19 10:12:22;;;;;;;3.70;2.90;;;8.10;99.90;;;;;;4995538;28;20924;-67
2023/10/19 10:15:05;;;;;;;3.43;2.70;;;8.10;99.90;;;;;;4969803;28;20316;-66
2023/10/19 10:17:37;;;;;;;4.87;3.27;;;8.00;99.90;;;;;;4995479;28;20911;-67
2023/10/19 10:20:34;;;;;;;5.13;3.67;;;8.10;99.90;;;;;;4980869;28;20451;-68
2023/10/19 10:23:24;;;;;;;5.70;3.77;;;8.10;99.90;;;;;;4950194;28;20711;-68
2023/10/19 10:25:53;;;;;;;3.40;2.90;;;8.10;99.90;;;;;;5000729;28;20238;-67
2023/10/19 10:28:23;;;;;;;3.93;3.00;;;8.10;99.90;;;;;;4990723;28;20371;-68
2023/10/19 10:31:15;;;;;;;15.17;4.40;;;8.10;99.90;;;;;;4964124;28;20202;-68
2023/10/19 10:33:49;;;;;;;3.77;3.30;;;8.80;99.90;;;;;;4998653;28;20202;-68
2023/10/19 10:36:17;;;;;;;3.10;2.80;;;8.10;99.90;;;;;;4968659;28;20210;-68
2023/10/19 10:38:45;;;;;;;3.93;3.07;;;8.00;99.90;;;;;;4949910;28;20614;-68
2023/10/19 10:41:13;;;;;;;3.10;2.80;;;8.00;99.90;;;;;;4984513;28;20233;-68
2023/10/19 10:43:54;;;;;;;3.50;2.97;;;8.10;99.90;;;;;;4994179;28;20218;-67
2023/10/19 10:46:22;;;;;;;33.60;20.60;;;8.00;99.90;;;;;;4957828;28;20229;-68
2023/10/19 10:48:51;;;;;;;4.40;3.30;;;8.00;99.90;;;;;;4993870;28;20206;-68
2023/10/19 10:51:19;;;;;;;4.13;3.20;;;8.00;99.90;;;;;;4976050;28;20332;-68
2023/10/19 10:53:49;;;;;;;4.93;3.73;;;8.00;99.90;;;;;;4955466;28;20844;-68
2023/10/19 10:56:15;;;;;;;20.53;4.87;;;8.40;99.90;;;;;;4973905;28;20226;-68
2023/10/19 10:58:42;;;;;;;4.10;3.27;;;8.30;99.90;;;;;;4996793;28;20202;-67
2023/10/19 11:01:10;;;;;;;3.55;3.00;;;8.30;99.90;;;;;;4979656;28;20213;-68
2023/10/19 11:03:37;;;;;;;4.15;3.20;;;8.00;99.90;;;;;;4981742;28;20218;-67
2023/10/19 11:06:07;;;;;;;5.67;4.17;;;8.10;99.90;;;;;;4980100;28;20214;-67
2023/10/19 11:08:35;;;;;;;7.33;4.10;;;8.10;99.90;;;;;;4957093;28;20260;-67
2023/10/19 11:11:07;;;;;;;4.00;3.10;;;8.00;99.90;;;;;;4972505;28;20237;-68
2023/10/19 11:13:35;;;;;;;3.47;3.13;;;8.00;99.90;;;;;;4970151;28;20222;-67
2023/10/19 11:16:05;;;;;;;4.22;3.10;;;8.10;99.90;;;;;;4984824;28;20605;-67
2023/10/19 11:18:35;;;;;;;5.73;3.27;;;8.60;99.90;;;;;;4983855;28;20356;-67
2023/10/19 11:21:06;;;;;;;3.43;3.00;;;7.80;99.90;;;;;;4975462;28;20621;-68
2023/10/19 11:23:43;;;;;;;3.77;3.03;;;8.00;99.90;;;;;;4956219;28;20233;-67
2023/10/19 11:26:10;;;;;;;3.63;3.20;;;8.10;99.90;;;;;;4965651;28;20320;-67
2023/10/19 11:28:42;;;;;;;8.57;3.10;;;8.20;99.90;;;;;;5002070;28;20218;-67
2023/10/19 11:31:14;;;;;;;7.33;3.37;;;8.30;99.90;;;;;;4956298;28;20738;-68
2023/10/19 11:33:42;;;;;;;3.97;3.23;;;8.30;99.90;;;;;;4977908;28;20971;-68
2023/10/19 11:36:12;;;;;;;4.00;3.40;;;8.40;99.90;;;;;;4963527;28;20244;-68
2023/10/19 11:38:44;;;;;;;3.30;2.93;;;8.30;99.90;;;;;;4954310;28;20227;-68
2023/10/19 11:41:12;;;;;;;4.27;3.70;;;8.20;99.90;;;;;;4973358;28;20205;-68
2023/10/19 11:43:40;;;;;;;3.83;3.30;;;8.20;99.90;;;;;;4999379;28;20209;-67
2023/10/19 11:46:07;;;;;;;3.97;3.37;;;8.20;99.90;;;;;;4972985;28;20221;-68
2023/10/19 11:48:35;;;;;;;4.23;3.60;;;8.30;99.90;;;;;;4976718;28;20210;-67
2023/10/19 11:51:03;;;;;;;59.17;38.93;;;8.10;99.90;;;;;;4988159;28;20228;-68
2023/10/19 11:53:36;;;;;;;55.00;34.20;;;8.20;99.90;;;;;;4991033;28;20296;-67
2023/10/19 11:56:06;;;;;;;8.00;5.20;;;8.20;99.90;;;;;;4941476;28;21811;-68
2023/10/19 11:58:34;;;;;;;3.90;3.33;;;8.20;99.90;;;;;;4973938;28;20236;-67
2023/10/19 12:01:02;;;;;;;17.40;4.30;;;8.20;99.90;;;;;;4979324;28;20226;-67
2023/10/19 12:03:29;;;;;;;3.93;3.53;;;8.40;99.90;;;;;;4964836;28;20222;-67
2023/10/19 12:05:57;;;;;;;5.30;3.90;;;8.30;99.90;;;;;;4983830;28;20751;-68
2023/10/19 12:08:24;;;;;;;5.33;4.00;;;8.30;99.90;;;;;;4987118;28;20216;-68
2023/10/19 12:10:52;;;;;;;9.10;4.63;;;8.40;99.90;;;;;;4956519;28;20231;-68
2023/10/19 12:13:20;;;;;;;10.40;6.37;;;8.30;99.90;;;;;;4985324;28;20282;-68
2023/10/19 12:15:52;;;;;;;12.10;7.30;;;8.20;99.90;;;;;;4977277;28;20535;-68
2023/10/19 12:18:20;;;;;;;14.73;6.80;;;8.10;99.90;;;;;;4993606;28;20205;-68
2023/10/19 12:20:47;;;;;;;9.30;6.00;;;8.20;99.90;;;;;;4984822;28;20210;-68
2023/10/19 12:23:14;;;;;;;6.03;4.57;;;8.10;99.90;;;;;;4987961;28;20715;-68
2023/10/19 12:25:42;;;;;;;5.33;4.20;;;6.70;99.90;;;;;;4951309;28;20214;-68
2023/10/19 12:28:13;;;;;;;4.33;3.90;;;8.00;99.90;;;;;;4985149;28;20234;-68
2023/10/19 12:30:42;;;;;;;33.20;19.53;;;8.00;99.90;;;;;;4988206;28;20593;-68
2023/10/19 12:33:12;;;;;;;74.30;48.30;;;8.00;99.90;;;;;;4982220;28;20252;-67
2023/10/19 12:35:48;;;;;;;10.23;7.27;;;7.30;99.90;;;;;;4960763;28;20238;-68
2023/10/19 12:38:19;;;;;;;7.10;4.17;;;8.10;99.90;;;;;;4982115;28;20825;-67
2023/10/19 12:40:47;;;;;;;5.20;4.00;;;8.10;99.90;;;;;;4957576;28;20275;-67
2023/10/19 12:43:15;;;;;;;4.17;3.57;;;8.10;99.90;;;;;;4970645;28;20985;-67
2023/10/19 12:45:47;;;;;;;5.53;4.20;;;8.00;99.90;;;;;;4997810;28;20206;-68
2023/10/19 12:48:14;;;;;;;5.27;4.47;;;8.10;99.90;;;;;;4984114;28;20229;-67
2023/10/19 12:50:41;;;;;;;5.40;3.93;;;8.10;99.90;;;;;;4972554;28;20207;-67
2023/10/19 12:53:09;;;;;;;6.80;4.53;;;8.10;99.90;;;;;;4982528;28;20206;-67
2023/10/19 12:55:37;;;;;;;10.30;5.53;;;8.10;99.90;;;;;;4997318;28;20238;-67
2023/10/19 12:58:08;;;;;;;6.10;4.67;;;8.10;99.90;;;;;;4949171;28;20219;-67
2023/10/19 13:00:43;;;;;;;5.30;3.93;;;8.10;99.90;;;;;;4977404;28;20214;-67
2023/10/19 13:03:15;;;;;;;5.97;3.87;;;8.10;99.90;;;;;;4953492;28;20706;-67
2023/10/19 13:05:44;;;;;;;4.90;3.83;;;8.10;99.90;;;;;;4961537;28;20907;-68